Time;durP1;ratioP1;P1;durP2;ratioP2;P2;SDS_P1;SDS_P2;PMS_P1;PMS_P2;Temp;Humidity;BMP_temperature;BMP_pressure;BME280_temperature;BME280_humidity;BME280_pressure;Samples;Min_cycle;Max_cycle;Signal;HPM_P1;HPM_P2
2022/11/08 00:01:32;;;;;;;6.55;1.98;;;13.50;86.20;;;;;;5054190;28;20041;-78
2022/11/08 00:04:11;;;;;;;5.85;2.10;;;13.50;86.10;;;;;;5036470;28;20029;-78
2022/11/08 00:14:51;;;;;;;4.60;1.65;;;13.40;86.20;;;;;;5039194;28;20044;-78
2022/11/08 00:17:19;;;;;;;5.57;2.13;;;13.40;86.10;;;;;;5036366;28;20076;-78
2022/11/08 00:19:45;;;;;;;6.63;2.03;;;13.40;86.20;;;;;;5053472;28;20061;-78
2022/11/08 00:22:12;;;;;;;6.63;2.08;;;13.30;86.00;;;;;;5036284;28;20029;-78
2022/11/08 00:24:38;;;;;;;3.22;1.67;;;13.40;86.30;;;;;;5053578;28;20093;-78
2022/11/08 00:27:12;;;;;;;6.05;1.77;;;13.40;86.10;;;;;;5053561;28;20022;-78
2022/11/08 00:29:38;;;;;;;8.38;2.60;;;13.40;86.10;;;;;;5053201;28;20029;-78
2022/11/08 00:32:06;;;;;;;7.32;2.10;;;13.40;87.00;;;;;;5053482;28;20036;-79
2022/11/08 00:34:32;;;;;;;5.55;1.90;;;13.40;86.30;;;;;;5053418;28;20032;-78
2022/11/08 00:36:58;;;;;;;4.25;2.00;;;13.50;86.20;;;;;;5053443;28;20048;-79
2022/11/08 00:39:24;;;;;;;8.25;2.22;;;13.40;86.10;;;;;;5035955;28;20085;-78
2022/11/08 00:41:49;;;;;;;5.63;2.28;;;13.40;85.90;;;;;;5036021;28;20049;-78
2022/11/08 00:44:15;;;;;;;5.80;2.30;;;13.50;86.00;;;;;;5053348;28;20056;-78
2022/11/08 00:46:41;;;;;;;4.95;1.77;;;13.40;85.80;;;;;;5035830;28;20025;-78
2022/11/08 00:49:07;;;;;;;6.78;2.22;;;13.40;86.00;;;;;;5035823;28;20022;-79
2022/11/08 00:51:33;;;;;;;4.22;1.92;;;13.30;85.80;;;;;;5035814;28;20392;-78
2022/11/08 00:53:59;;;;;;;8.27;2.50;;;13.30;86.00;;;;;;5053124;28;20048;-78
2022/11/08 00:56:24;;;;;;;4.63;1.80;;;13.30;86.40;;;;;;5035777;28;20053;-78
2022/11/08 00:58:50;;;;;;;4.68;2.10;;;13.30;86.20;;;;;;5053147;28;20018;-78
2022/11/08 01:01:18;;;;;;;6.70;2.42;;;13.20;86.50;;;;;;5053127;28;20041;-78
2022/11/08 01:03:45;;;;;;;7.28;2.25;;;13.20;86.50;;;;;;5053108;28;20018;-78
2022/11/08 01:06:12;;;;;;;4.68;1.80;;;13.10;86.90;;;;;;5053085;28;20049;-78
2022/11/08 01:08:39;;;;;;;5.13;1.73;;;13.10;86.90;;;;;;5053000;28;20025;-78
2022/11/08 01:11:08;;;;;;;4.38;1.80;;;13.10;87.20;;;;;;5053201;28;20033;-78
2022/11/08 01:13:34;;;;;;;8.25;2.20;;;13.10;87.40;;;;;;5052925;28;20406;-78
2022/11/08 01:16:12;;;;;;;4.53;1.83;;;13.10;87.50;;;;;;5053025;28;20032;-78
2022/11/08 01:18:38;;;;;;;7.60;1.70;;;13.10;88.00;;;;;;5052842;28;20191;-78
2022/11/08 01:21:04;;;;;;;5.00;1.52;;;13.00;87.20;;;;;;5052957;28;20025;-78
2022/11/08 01:23:30;;;;;;;4.30;1.80;;;13.10;87.40;;;;;;5052921;28;20025;-78
2022/11/08 01:25:56;;;;;;;5.15;1.50;;;13.00;87.60;;;;;;5052916;28;20025;-78
2022/11/08 01:28:21;;;;;;;5.55;1.50;;;13.00;87.60;;;;;;5035416;28;20013;-78
2022/11/08 01:30:47;;;;;;;3.67;1.52;;;13.00;87.90;;;;;;5052873;28;20428;-78
2022/11/08 01:33:13;;;;;;;6.63;1.73;;;13.00;87.70;;;;;;5052857;28;20030;-79
2022/11/08 01:35:42;;;;;;;9.20;2.00;;;13.00;87.90;;;;;;5051779;28;20118;-78
2022/11/08 01:38:09;;;;;;;4.88;1.77;;;13.00;87.90;;;;;;5052786;28;20018;-78
2022/11/08 01:40:42;;;;;;;6.15;1.58;;;13.00;87.60;;;;;;5052774;28;20022;-78
2022/11/08 01:43:32;;;;;;;2.50;1.45;;;13.00;87.80;;;;;;5038287;28;20045;-78
2022/11/08 01:46:28;;;;;;;3.50;1.52;;;13.00;87.80;;;;;;5039143;28;20032;-77
2022/11/08 01:49:15;;;;;;;5.05;2.08;;;13.00;87.70;;;;;;5056529;28;20064;-78
2022/11/08 01:52:19;;;;;;;4.45;2.10;;;12.90;87.90;;;;;;5056630;28;20021;-78
2022/11/08 01:55:15;;;;;;;3.63;1.60;;;12.90;88.10;;;;;;4956634;29;20083;-78
2022/11/08 01:57:55;;;;;;;5.90;2.00;;;12.90;88.30;;;;;;5038806;28;20081;-79
2022/11/08 02:00:21;;;;;;;4.95;1.85;;;12.90;88.40;;;;;;5056478;28;20073;-78
2022/11/08 02:02:57;;;;;;;6.18;1.83;;;13.00;88.30;;;;;;5022321;28;20022;-78
2022/11/08 02:05:26;;;;;;;3.72;1.65;;;13.00;87.80;;;;;;5056251;28;20036;-78
2022/11/08 02:08:05;;;;;;;4.75;1.65;;;13.00;87.70;;;;;;5056177;28;20029;-79
2022/11/08 02:10:43;;;;;;;5.10;1.60;;;13.00;87.80;;;;;;5056181;28;20032;-79
2022/11/08 02:13:14;;;;;;;5.22;1.73;;;13.00;87.70;;;;;;5056017;28;20400;-78
2022/11/08 02:15:40;;;;;;;4.15;1.63;;;13.00;87.60;;;;;;5056007;28;20026;-78
2022/11/08 02:18:06;;;;;;;5.55;1.58;;;13.00;87.70;;;;;;5055784;28;20025;-78
2022/11/08 02:20:33;;;;;;;4.03;1.77;;;13.00;87.50;;;;;;5056073;28;20037;-79
2022/11/08 02:23:20;;;;;;;5.63;1.60;;;13.00;87.60;;;;;;5038318;28;20060;-78
2022/11/08 02:25:46;;;;;;;4.60;1.70;;;13.00;87.50;;;;;;5056030;28;20025;-78
2022/11/08 02:28:11;;;;;;;5.38;1.80;;;13.00;87.50;;;;;;5055946;28;20081;-79
2022/11/08 02:30:37;;;;;;;2.92;1.58;;;13.00;87.40;;;;;;5055746;28;20033;-79
2022/11/08 02:33:32;;;;;;;4.25;1.55;;;13.00;87.40;;;;;;5038346;28;20026;-79
2022/11/08 02:35:58;;;;;;;4.45;1.60;;;13.00;87.40;;;;;;5034577;28;20050;-79
2022/11/08 02:38:25;;;;;;;4.03;1.60;;;13.00;87.40;;;;;;5038070;28;20048;-79
2022/11/08 02:40:53;;;;;;;5.13;1.50;;;13.00;87.30;;;;;;5038172;28;20504;-79
2022/11/08 02:43:19;;;;;;;3.47;1.73;;;13.00;87.00;;;;;;5055474;28;20032;-79
2022/11/08 02:45:45;;;;;;;6.35;2.03;;;13.00;86.90;;;;;;5055473;28;20029;-79
2022/11/08 02:48:11;;;;;;;7.40;2.00;;;13.00;87.10;;;;;;5055514;28;20053;-79
2022/11/08 02:50:37;;;;;;;6.55;1.98;;;13.00;86.90;;;;;;5037839;28;20443;-78
2022/11/08 02:53:03;;;;;;;3.35;1.83;;;13.00;87.00;;;;;;5021420;28;20030;-79
2022/11/08 02:55:30;;;;;;;4.28;2.00;;;12.90;86.90;;;;;;5055212;28;20037;-78
2022/11/08 02:57:56;;;;;;;4.65;1.90;;;12.90;86.90;;;;;;5055282;28;20024;-78
2022/11/08 03:00:22;;;;;;;6.88;2.30;;;12.90;87.00;;;;;;5037645;28;20028;-79
2022/11/08 03:02:55;;;;;;;7.97;2.15;;;12.90;87.10;;;;;;5037571;28;20041;-78
2022/11/08 03:05:22;;;;;;;6.15;1.77;;;12.90;87.00;;;;;;5055151;28;20033;-78
2022/11/08 03:07:48;;;;;;;7.03;2.15;;;12.90;86.90;;;;;;5037376;28;20029;-78
2022/11/08 03:10:14;;;;;;;7.32;2.20;;;12.90;86.70;;;;;;5021178;28;20523;-78
2022/11/08 03:12:41;;;;;;;5.07;1.73;;;12.90;86.70;;;;;;5054955;28;20025;-79
2022/11/08 03:15:08;;;;;;;4.70;2.03;;;12.90;86.70;;;;;;5037428;28;20026;-78
2022/11/08 03:17:34;;;;;;;6.85;2.00;;;12.80;86.80;;;;;;5054852;28;20026;-78
2022/11/08 03:20:00;;;;;;;5.10;2.03;;;12.90;86.70;;;;;;5037077;28;20045;-79
2022/11/08 03:22:26;;;;;;;6.00;1.83;;;12.80;86.60;;;;;;5037412;28;20030;-78
2022/11/08 03:24:51;;;;;;;3.92;1.80;;;12.80;86.60;;;;;;5037301;28;20037;-79
2022/11/08 03:27:18;;;;;;;4.95;1.80;;;12.80;86.50;;;;;;5037233;28;20068;-79
2022/11/08 03:29:46;;;;;;;6.63;2.17;;;12.80;86.40;;;;;;5054599;28;20028;-78
2022/11/08 03:32:13;;;;;;;3.88;2.03;;;12.80;86.30;;;;;;5054555;28;20037;-78
2022/11/08 03:34:39;;;;;;;2.97;1.75;;;12.80;86.30;;;;;;5054429;28;20037;-79
2022/11/08 03:37:05;;;;;;;8.15;2.67;;;12.90;85.90;;;;;;5054592;28;20109;-79
2022/11/08 03:39:31;;;;;;;4.63;2.03;;;12.80;85.90;;;;;;5054437;28;20017;-79
2022/11/08 03:41:59;;;;;;;7.13;1.98;;;12.90;85.90;;;;;;5036946;28;20049;-79
2022/11/08 03:44:25;;;;;;;11.00;2.00;;;12.80;85.60;;;;;;5054367;28;20109;-78
2022/11/08 03:46:50;;;;;;;5.22;1.90;;;12.80;85.40;;;;;;5054284;28;20030;-79
2022/11/08 03:49:16;;;;;;;7.03;1.98;;;12.80;85.60;;;;;;5054254;28;20033;-79
2022/11/08 03:51:41;;;;;;;3.70;1.70;;;12.90;85.60;;;;;;5036796;28;20029;-79
2022/11/08 03:54:08;;;;;;;4.80;1.90;;;12.80;85.10;;;;;;5054103;28;20109;-79
2022/11/08 03:56:34;;;;;;;3.67;1.70;;;12.90;84.90;;;;;;5054185;28;20022;-78
2022/11/08 03:58:59;;;;;;;7.25;2.15;;;12.90;84.40;;;;;;5054184;28;20022;-79
2022/11/08 04:01:25;;;;;;;3.85;1.83;;;12.80;84.50;;;;;;5036815;28;20025;-79
2022/11/08 04:03:50;;;;;;;4.15;1.52;;;12.80;84.50;;;;;;5036606;28;20029;-78
2022/11/08 04:06:16;;;;;;;3.13;1.58;;;12.80;84.40;;;;;;5053424;28;20022;-78
2022/11/08 04:08:42;;;;;;;6.75;2.05;;;12.80;85.20;;;;;;5053876;28;20445;-78
2022/11/08 04:16:36;;;;;;;5.75;1.75;;;12.70;84.20;;;;;;5053953;28;20104;-78
2022/11/08 04:21:47;;;;;;;5.57;1.73;;;12.60;85.40;;;;;;5038980;28;20037;-79
2022/11/08 04:24:13;;;;;;;4.28;1.80;;;12.60;84.20;;;;;;5036157;28;20018;-78
2022/11/08 04:26:39;;;;;;;5.45;2.17;;;12.60;84.20;;;;;;5053614;28;20049;-79
2022/11/08 04:29:06;;;;;;;7.15;1.50;;;12.60;85.00;;;;;;5036120;28;20026;-78
2022/11/08 04:31:31;;;;;;;3.28;1.58;;;12.50;84.10;;;;;;5053586;28;20026;-79
2022/11/08 04:33:57;;;;;;;4.60;1.55;;;12.50;84.10;;;;;;5053421;28;20048;-78
2022/11/08 04:36:23;;;;;;;4.70;1.77;;;12.50;84.10;;;;;;5036062;28;20378;-78
2022/11/08 04:38:49;;;;;;;4.25;1.60;;;12.60;83.80;;;;;;5053406;28;20033;-78
2022/11/08 04:41:17;;;;;;;3.50;1.73;;;12.50;83.70;;;;;;5053376;28;20044;-78
2022/11/08 04:43:43;;;;;;;2.65;1.40;;;12.50;83.40;;;;;;5053349;28;20112;-78
2022/11/08 04:46:12;;;;;;;4.78;1.52;;;12.50;83.50;;;;;;5035803;28;20026;-79
2022/11/08 04:48:37;;;;;;;4.88;1.70;;;12.50;83.30;;;;;;5035831;28;20021;-78
2022/11/08 04:51:06;;;;;;;4.88;2.00;;;12.50;83.30;;;;;;5053274;28;20409;-78
2022/11/08 04:53:32;;;;;;;4.03;1.52;;;12.50;83.30;;;;;;5053217;28;20022;-78
2022/11/08 04:56:08;;;;;;;3.60;1.52;;;12.50;83.20;;;;;;5053132;28;20056;-79
2022/11/08 04:58:36;;;;;;;3.70;2.10;;;12.50;82.90;;;;;;5035836;28;20041;-78
2022/11/08 05:01:03;;;;;;;4.38;1.77;;;12.50;83.00;;;;;;5053149;28;20021;-78
2022/11/08 05:03:30;;;;;;;3.88;1.42;;;12.50;82.80;;;;;;5053101;28;20058;-78
2022/11/08 05:05:58;;;;;;;4.00;1.55;;;12.50;82.80;;;;;;5053120;28;20118;-78
2022/11/08 05:08:24;;;;;;;4.28;1.83;;;12.50;82.60;;;;;;5053016;28;20030;-78
2022/11/08 05:10:49;;;;;;;3.35;1.70;;;12.50;82.90;;;;;;5035559;28;20063;-78
2022/11/08 05:13:15;;;;;;;4.25;1.77;;;12.50;82.80;;;;;;5035693;28;20065;-78
2022/11/08 05:15:41;;;;;;;3.53;1.48;;;12.50;82.70;;;;;;5036115;28;20037;-79
2022/11/08 05:18:06;;;;;;;4.63;1.85;;;12.50;82.50;;;;;;5057114;28;20033;-78
2022/11/08 05:23:25;;;;;;;4.50;1.70;;;12.50;82.60;;;;;;5042459;28;20093;-79
2022/11/08 05:25:52;;;;;;;5.22;1.80;;;12.50;82.40;;;;;;5040832;28;20025;-79
2022/11/08 05:28:19;;;;;;;4.78;1.40;;;12.60;82.40;;;;;;5039383;28;20060;-79
2022/11/08 05:30:51;;;;;;;6.18;1.83;;;12.50;82.30;;;;;;5056997;28;20041;-79
2022/11/08 05:33:16;;;;;;;4.20;1.60;;;12.50;82.30;;;;;;5056941;28;20036;-79
2022/11/08 05:35:42;;;;;;;4.18;1.60;;;12.60;82.40;;;;;;5039300;28;20045;-79
2022/11/08 05:38:08;;;;;;;3.35;1.60;;;12.60;82.20;;;;;;5039220;28;20040;-79
2022/11/08 05:40:33;;;;;;;4.18;1.67;;;12.60;82.10;;;;;;5039396;28;20026;-78
2022/11/08 05:42:59;;;;;;;6.93;1.85;;;12.60;82.20;;;;;;5039106;28;20041;-78
2022/11/08 05:45:24;;;;;;;4.03;1.65;;;12.60;82.10;;;;;;5039096;28;20033;-79
2022/11/08 05:47:50;;;;;;;4.53;1.90;;;12.60;82.10;;;;;;5056539;28;20037;-79
2022/11/08 05:50:16;;;;;;;6.57;1.90;;;12.60;82.20;;;;;;5038993;28;20044;-78
2022/11/08 05:52:41;;;;;;;4.60;1.55;;;12.50;82.20;;;;;;5056441;28;20037;-79
2022/11/08 05:55:07;;;;;;;4.82;1.83;;;12.50;82.10;;;;;;5056345;28;20029;-78
2022/11/08 05:57:33;;;;;;;4.57;1.65;;;12.50;82.30;;;;;;5056401;28;20064;-78
2022/11/08 05:59:58;;;;;;;3.45;1.75;;;12.50;82.30;;;;;;5056323;28;20030;-78
2022/11/08 06:02:24;;;;;;;4.43;1.80;;;12.50;82.10;;;;;;5038908;28;20040;-78
2022/11/08 06:04:50;;;;;;;4.45;1.60;;;12.50;82.20;;;;;;5056234;28;20096;-78
2022/11/08 06:07:15;;;;;;;2.67;1.60;;;12.50;82.20;;;;;;5056252;28;20033;-79
2022/11/08 06:09:41;;;;;;;6.95;1.73;;;12.40;82.10;;;;;;5038593;28;20110;-79
2022/11/08 06:12:07;;;;;;;4.22;1.70;;;12.40;82.20;;;;;;5056143;28;20033;-79
2022/11/08 06:14:32;;;;;;;2.97;1.80;;;12.40;82.10;;;;;;5055962;28;20095;-79
2022/11/08 06:16:58;;;;;;;7.00;1.70;;;12.40;82.10;;;;;;5056024;28;20082;-79
2022/11/08 06:19:24;;;;;;;5.65;1.80;;;12.40;82.00;;;;;;5055765;28;20048;-79
2022/11/08 06:21:49;;;;;;;4.05;1.80;;;12.40;82.90;;;;;;5038455;28;20046;-79
2022/11/08 06:24:16;;;;;;;4.53;1.75;;;12.40;81.80;;;;;;5055845;28;20060;-79
2022/11/08 06:26:42;;;;;;;4.82;1.80;;;12.40;81.80;;;;;;5038325;28;20090;-79
2022/11/08 06:29:08;;;;;;;5.05;1.98;;;12.40;82.00;;;;;;5037903;28;20022;-79
2022/11/08 06:31:34;;;;;;;3.70;1.55;;;12.30;81.90;;;;;;5054771;28;20025;-79
2022/11/08 06:34:00;;;;;;;4.50;1.85;;;12.30;81.80;;;;;;5021913;28;20056;-79
2022/11/08 06:36:26;;;;;;;3.63;2.03;;;12.30;81.90;;;;;;5055613;28;20045;-79
2022/11/08 06:38:55;;;;;;;3.47;1.60;;;12.30;82.00;;;;;;5055688;28;20026;-79
2022/11/08 06:41:21;;;;;;;4.53;1.60;;;12.30;81.90;;;;;;5055589;28;20029;-79
2022/11/08 06:43:48;;;;;;;4.97;2.00;;;12.30;81.90;;;;;;5055511;28;20025;-79
2022/11/08 06:46:14;;;;;;;4.78;1.77;;;12.30;81.80;;;;;;5038167;28;20081;-79
2022/11/08 06:48:39;;;;;;;2.90;1.95;;;12.30;81.80;;;;;;5037933;28;20029;-79
2022/11/08 06:51:05;;;;;;;5.50;1.65;;;12.30;81.90;;;;;;5055395;28;20026;-80
2022/11/08 06:53:31;;;;;;;4.65;1.92;;;12.30;81.60;;;;;;5037919;28;20041;-80
2022/11/08 06:56:01;;;;;;;2.30;1.65;;;12.20;82.60;;;;;;5055217;28;20021;-79
2022/11/08 06:58:27;;;;;;;2.83;1.65;;;12.20;82.00;;;;;;5055254;28;20030;-79
2022/11/08 07:00:52;;;;;;;3.25;1.98;;;12.20;82.30;;;;;;5037705;28;20022;-79
2022/11/08 07:03:18;;;;;;;4.15;1.63;;;12.20;82.20;;;;;;5037819;28;20036;-79
2022/11/08 07:05:44;;;;;;;5.43;2.10;;;12.20;81.80;;;;;;5037698;28;20034;-79
2022/11/08 07:08:09;;;;;;;4.00;1.92;;;12.20;82.00;;;;;;5055006;28;20036;-79
2022/11/08 07:10:36;;;;;;;3.67;2.10;;;12.20;81.60;;;;;;5037685;28;20052;-80
2022/11/08 07:13:04;;;;;;;3.33;1.92;;;12.20;81.80;;;;;;5054983;28;20040;-79
2022/11/08 07:15:31;;;;;;;4.68;1.95;;;12.30;81.80;;;;;;5054887;28;20061;-78
2022/11/08 07:18:02;;;;;;;3.55;1.40;;;12.30;81.40;;;;;;5037531;28;20120;-78
2022/11/08 07:20:27;;;;;;;5.13;2.05;;;12.30;81.20;;;;;;5054677;28;20033;-78
2022/11/08 07:22:54;;;;;;;3.55;1.95;;;12.30;81.50;;;;;;5037386;28;20128;-78
2022/11/08 07:25:20;;;;;;;4.75;1.98;;;12.20;81.60;;;;;;5037193;28;20032;-78
2022/11/08 07:27:45;;;;;;;5.18;1.95;;;12.30;81.50;;;;;;5037325;28;20034;-78
2022/11/08 07:30:11;;;;;;;4.72;1.70;;;12.20;81.80;;;;;;5054663;28;20034;-79
2022/11/08 07:32:37;;;;;;;2.92;1.80;;;12.20;81.80;;;;;;5037068;28;20056;-79
2022/11/08 07:35:03;;;;;;;5.57;2.03;;;12.20;82.70;;;;;;5036942;28;20061;-80
2022/11/08 07:37:28;;;;;;;6.80;1.92;;;12.20;81.70;;;;;;5054544;28;20025;-79
2022/11/08 07:39:54;;;;;;;4.03;1.83;;;12.20;81.50;;;;;;5053505;28;20040;-79
2022/11/08 07:42:20;;;;;;;6.35;2.10;;;12.30;81.30;;;;;;5054521;28;20026;-78
2022/11/08 07:44:45;;;;;;;4.57;1.60;;;12.20;81.80;;;;;;5054277;28;20033;-78
2022/11/08 07:47:11;;;;;;;3.35;2.00;;;12.30;81.70;;;;;;5036971;28;20045;-79
2022/11/08 07:49:36;;;;;;;3.25;1.75;;;12.40;81.00;;;;;;5054410;28;20042;-78
2022/11/08 07:52:02;;;;;;;6.78;2.42;;;12.30;81.10;;;;;;5020304;28;20053;-78
2022/11/08 07:54:28;;;;;;;3.00;2.00;;;12.40;81.20;;;;;;5036728;28;20081;-79
2022/11/08 07:56:53;;;;;;;6.55;2.20;;;12.40;81.90;;;;;;5036702;28;20033;-78
2022/11/08 07:59:19;;;;;;;5.25;1.98;;;12.50;81.00;;;;;;5036895;28;20033;-78
2022/11/08 08:01:44;;;;;;;7.70;1.85;;;12.50;80.50;;;;;;5054061;28;20026;-78
2022/11/08 08:04:11;;;;;;;4.70;1.88;;;12.50;80.70;;;;;;5053974;28;20025;-78
2022/11/08 08:06:37;;;;;;;6.88;2.10;;;12.60;80.40;;;;;;5053986;28;20021;-78
2022/11/08 08:09:03;;;;;;;6.57;2.00;;;12.60;80.10;;;;;;5053887;28;20061;-79
2022/11/08 08:11:29;;;;;;;4.75;2.10;;;12.70;79.40;;;;;;5036471;28;20029;-78
2022/11/08 08:13:55;;;;;;;3.95;1.92;;;12.70;79.70;;;;;;5036271;28;20036;-78
2022/11/08 08:16:21;;;;;;;5.38;1.77;;;12.60;80.50;;;;;;5036500;28;20523;-79
2022/11/08 08:18:48;;;;;;;2.58;1.45;;;12.70;79.20;;;;;;5036082;28;20045;-78
2022/11/08 08:21:14;;;;;;;3.08;1.80;;;12.80;79.40;;;;;;5053760;28;20049;-78
2022/11/08 08:23:40;;;;;;;4.43;1.80;;;12.80;78.80;;;;;;5053747;28;20021;-79
2022/11/08 08:26:06;;;;;;;3.20;1.70;;;12.80;78.10;;;;;;5052662;28;20041;-78
2022/11/08 08:28:32;;;;;;;8.02;1.70;;;12.80;78.10;;;;;;5036135;28;20029;-78
2022/11/08 08:30:57;;;;;;;5.78;1.70;;;12.90;77.70;;;;;;5036086;28;20365;-78
2022/11/08 08:33:23;;;;;;;3.92;1.38;;;13.00;77.20;;;;;;5053509;28;20025;-78
2022/11/08 08:35:51;;;;;;;2.17;1.40;;;13.00;76.90;;;;;;5035925;28;20563;-78
2022/11/08 08:38:17;;;;;;;4.13;1.75;;;13.10;76.30;;;;;;5053436;28;20021;-78
2022/11/08 08:40:42;;;;;;;3.45;1.65;;;13.10;76.10;;;;;;5053410;28;20045;-78
2022/11/08 08:43:08;;;;;;;2.97;1.70;;;13.20;76.30;;;;;;5035916;28;20061;-79
2022/11/08 08:45:35;;;;;;;3.67;1.80;;;13.20;76.30;;;;;;5053354;28;20033;-78
2022/11/08 08:48:01;;;;;;;3.42;1.60;;;13.20;76.60;;;;;;5036021;28;20101;-78
2022/11/08 08:50:28;;;;;;;3.75;1.70;;;13.20;75.70;;;;;;5035610;28;20025;-79
2022/11/08 08:52:58;;;;;;;3.25;1.73;;;13.20;76.30;;;;;;5035726;28;20029;-79
2022/11/08 08:55:24;;;;;;;2.83;1.70;;;13.20;75.90;;;;;;5053161;28;20030;-79
2022/11/08 08:57:50;;;;;;;2.88;1.77;;;13.20;76.20;;;;;;5035789;28;20033;-79
2022/11/08 09:00:16;;;;;;;5.93;1.55;;;13.30;76.00;;;;;;5053182;28;20089;-79
2022/11/08 09:02:42;;;;;;;5.53;1.73;;;13.50;75.30;;;;;;5035678;28;20028;-79
2022/11/08 09:05:10;;;;;;;3.45;1.40;;;13.60;74.70;;;;;;5053244;28;20041;-79
2022/11/08 09:07:35;;;;;;;3.47;1.45;;;13.60;74.90;;;;;;5053037;28;20036;-79
2022/11/08 09:10:01;;;;;;;4.00;1.63;;;13.60;75.10;;;;;;5053073;28;20089;-79
2022/11/08 09:12:27;;;;;;;3.92;1.45;;;13.50;74.30;;;;;;5035630;28;20038;-79
2022/11/08 09:14:53;;;;;;;2.65;1.70;;;13.40;74.90;;;;;;5052934;28;20033;-79
2022/11/08 09:17:19;;;;;;;2.63;1.30;;;13.40;75.20;;;;;;5035565;28;20021;-80
2022/11/08 09:19:45;;;;;;;4.32;1.35;;;13.40;75.40;;;;;;5052847;28;20061;-80
2022/11/08 09:22:11;;;;;;;5.72;1.50;;;13.50;75.00;;;;;;5035689;28;20045;-79
2022/11/08 09:24:37;;;;;;;2.50;1.35;;;13.40;75.80;;;;;;5035502;28;20057;-79
2022/11/08 09:27:02;;;;;;;4.57;1.70;;;13.40;74.70;;;;;;5052921;28;20040;-79
2022/11/08 09:29:32;;;;;;;2.63;1.13;;;13.40;74.70;;;;;;5052942;28;20034;-79
2022/11/08 09:31:59;;;;;;;3.30;1.40;;;13.50;74.50;;;;;;5035390;28;20032;-80
2022/11/08 09:34:25;;;;;;;3.53;1.52;;;13.50;75.20;;;;;;5052783;28;20057;-79
2022/11/08 09:36:51;;;;;;;4.93;1.40;;;13.60;75.90;;;;;;5052856;28;20437;-78
2022/11/08 09:39:17;;;;;;;4.43;1.48;;;13.70;74.70;;;;;;5052770;28;20090;-79
2022/11/08 09:41:57;;;;;;;4.60;1.65;;;13.60;75.40;;;;;;5035435;28;20030;-78
2022/11/08 09:44:42;;;;;;;3.60;1.50;;;13.70;73.90;;;;;;5052790;28;20033;-78
2022/11/08 09:47:23;;;;;;;4.03;1.45;;;13.70;75.80;;;;;;5052807;28;20100;-79
2022/11/08 09:50:06;;;;;;;4.93;1.65;;;13.70;74.40;;;;;;5052922;28;20062;-78
2022/11/08 09:52:33;;;;;;;3.78;2.13;;;13.70;74.90;;;;;;5052844;28;20060;-78
2022/11/08 09:55:16;;;;;;;4.07;1.65;;;13.80;75.40;;;;;;5052716;28;20036;-78
2022/11/08 09:58:01;;;;;;;2.40;1.55;;;13.80;74.10;;;;;;5035200;28;20033;-78
2022/11/08 10:00:27;;;;;;;3.55;1.52;;;13.80;74.60;;;;;;5052678;28;20032;-78
2022/11/08 10:02:53;;;;;;;2.10;1.27;;;13.80;75.00;;;;;;5035918;28;20088;-78
2022/11/08 10:05:19;;;;;;;3.30;1.40;;;13.80;74.50;;;;;;5056244;28;20037;-78
2022/11/08 10:08:08;;;;;;;3.35;1.48;;;13.90;74.30;;;;;;5038632;28;20029;-79
2022/11/08 10:10:39;;;;;;;2.55;1.60;;;13.90;74.10;;;;;;5056347;28;20084;-78
2022/11/08 10:13:27;;;;;;;2.65;1.40;;;14.00;74.90;;;;;;5056130;28;20029;-78
2022/11/08 10:16:15;;;;;;;3.67;1.50;;;14.00;73.90;;;;;;5056012;28;20029;-78
2022/11/08 10:18:40;;;;;;;1.98;1.30;;;14.10;73.80;;;;;;5055906;28;20041;-77
2022/11/08 10:21:34;;;;;;;2.80;1.45;;;14.10;75.00;;;;;;5038458;28;20061;-78
2022/11/08 10:24:14;;;;;;;3.95;1.42;;;14.20;73.80;;;;;;5038408;28;20029;-78
2022/11/08 10:26:44;;;;;;;2.80;1.65;;;14.30;74.50;;;;;;5055920;28;20022;-78
2022/11/08 10:29:20;;;;;;;4.47;1.70;;;14.40;74.30;;;;;;5055855;28;20025;-79
2022/11/08 10:31:51;;;;;;;2.72;1.60;;;14.60;73.80;;;;;;5038240;28;20047;-78
2022/11/08 10:34:24;;;;;;;3.50;1.20;;;14.70;74.20;;;;;;5038173;28;20037;-78
2022/11/08 10:36:57;;;;;;;2.70;1.65;;;14.70;72.30;;;;;;5055900;28;20035;-78
2022/11/08 10:39:28;;;;;;;2.83;1.58;;;14.80;72.90;;;;;;5055684;28;20018;-78
2022/11/08 10:42:20;;;;;;;2.08;1.30;;;14.80;71.90;;;;;;5055525;28;20368;-78
2022/11/08 10:44:46;;;;;;;3.47;1.20;;;14.80;71.80;;;;;;5055612;28;20038;-78
2022/11/08 10:47:30;;;;;;;2.60;1.52;;;14.80;73.40;;;;;;5055556;28;20060;-78
2022/11/08 10:49:56;;;;;;;3.03;1.40;;;14.80;71.50;;;;;;5038500;28;20018;-79
2022/11/08 10:52:38;;;;;;;3.25;1.50;;;14.90;72.70;;;;;;5038163;28;20037;-77
2022/11/08 10:55:08;;;;;;;2.85;1.20;;;14.90;71.60;;;;;;5055355;28;20036;-78
2022/11/08 10:57:41;;;;;;;2.30;1.30;;;14.90;71.80;;;;;;5055294;28;20033;-78
2022/11/08 11:00:24;;;;;;;4.30;1.20;;;14.90;71.70;;;;;;5037797;28;20018;-78
2022/11/08 11:02:57;;;;;;;4.63;1.42;;;14.90;72.10;;;;;;5055268;28;20029;-77
2022/11/08 11:05:35;;;;;;;5.47;1.73;;;14.90;71.20;;;;;;5055403;28;20024;-78
2022/11/08 11:08:04;;;;;;;3.20;1.60;;;14.90;71.00;;;;;;5055072;28;20025;-77
2022/11/08 11:10:42;;;;;;;2.78;1.30;;;15.00;71.80;;;;;;5055043;28;20033;-77
2022/11/08 11:13:12;;;;;;;2.33;1.23;;;15.00;70.90;;;;;;5055039;28;20060;-78
2022/11/08 11:16:01;;;;;;;3.05;1.25;;;15.00;71.90;;;;;;5054730;28;20037;-77
2022/11/08 11:18:33;;;;;;;4.90;1.45;;;15.00;70.70;;;;;;5054959;28;20018;-77
2022/11/08 11:21:21;;;;;;;2.85;1.20;;;15.00;71.10;;;;;;5037153;28;20144;-77
2022/11/08 11:24:05;;;;;;;4.82;1.45;;;15.00;71.00;;;;;;5054887;28;20173;-77
2022/11/08 11:26:46;;;;;;;1.90;1.20;;;15.00;71.20;;;;;;5037258;28;20429;-77
2022/11/08 11:29:19;;;;;;;2.03;1.23;;;15.00;70.60;;;;;;5054776;28;20024;-78
2022/11/08 11:31:46;;;;;;;;;;;15.00;71.10;;;;;;5037562;28;20041;-77
2022/11/08 11:34:17;;;;;;;3.00;1.17;;;15.10;71.80;;;;;;5054554;28;19977;-77
2022/11/08 11:37:08;;;;;;;6.82;1.52;;;15.00;71.80;;;;;;5054509;28;20021;-77
2022/11/08 11:39:33;;;;;;;2.45;1.42;;;15.00;70.80;;;;;;5054651;28;20030;-78
2022/11/08 11:42:15;;;;;;;3.38;1.35;;;15.10;71.60;;;;;;5037006;28;20028;-77
2022/11/08 11:44:59;;;;;;;3.75;1.58;;;15.20;71.30;;;;;;5054580;28;20037;-77
2022/11/08 11:47:53;;;;;;;2.83;1.17;;;15.20;70.90;;;;;;5054387;28;20024;-78
2022/11/08 11:50:37;;;;;;;2.80;1.38;;;15.30;70.10;;;;;;5054221;28;20081;-78
2022/11/08 11:53:16;;;;;;;6.07;1.75;;;15.30;71.30;;;;;;5054458;28;20045;-77
2022/11/08 11:55:41;;;;;;;3.95;1.40;;;15.30;70.60;;;;;;5054143;28;20022;-77
2022/11/08 11:58:34;;;;;;;3.50;1.15;;;15.40;70.20;;;;;;5036701;28;20025;-78
2022/11/08 12:01:22;;;;;;;3.30;1.30;;;15.40;70.20;;;;;;5054214;28;20029;-77
2022/11/08 12:04:20;;;;;;;5.00;1.42;;;15.40;69.00;;;;;;5036570;28;20029;-77
2022/11/08 12:07:15;;;;;;;2.72;1.15;;;15.40;69.00;;;;;;5054178;28;20017;-77
2022/11/08 12:09:47;;;;;;;4.05;1.40;;;15.50;68.80;;;;;;5053903;28;20052;-77
2022/11/08 12:12:37;;;;;;;4.82;1.70;;;15.60;69.80;;;;;;5053907;28;20026;-77
2022/11/08 12:15:14;;;;;;;4.95;1.52;;;15.60;70.20;;;;;;5053819;28;20026;-78
2022/11/08 12:17:56;;;;;;;2.65;1.80;;;15.60;68.80;;;;;;5053851;28;20081;-77
2022/11/08 12:20:37;;;;;;;3.17;1.40;;;15.50;69.10;;;;;;5053603;28;20056;-77
2022/11/08 12:23:16;;;;;;;3.03;1.10;;;15.50;68.90;;;;;;5053726;28;20022;-77
2022/11/08 12:25:41;;;;;;;1.90;1.15;;;15.50;69.40;;;;;;5053250;28;20045;-77
2022/11/08 12:28:26;;;;;;;3.58;1.30;;;15.50;69.50;;;;;;5036139;28;20025;-77
2022/11/08 12:31:06;;;;;;;1.83;1.02;;;15.50;69.00;;;;;;5053549;28;20029;-77
2022/11/08 12:33:49;;;;;;;2.60;1.20;;;15.50;69.50;;;;;;5053728;28;20064;-77
2022/11/08 12:36:14;;;;;;;4.03;1.45;;;15.60;69.70;;;;;;5053699;28;20037;-77
2022/11/08 12:38:59;;;;;;;5.28;1.30;;;15.60;68.70;;;;;;5053589;28;20029;-77
2022/11/08 12:41:33;;;;;;;2.65;1.45;;;15.60;69.30;;;;;;5053623;28;20052;-77
2022/11/08 12:44:30;;;;;;;4.00;1.48;;;15.60;70.00;;;;;;5053473;28;20030;-77
2022/11/08 12:47:33;;;;;;;2.55;1.00;;;15.60;69.10;;;;;;5053334;28;20072;-77
2022/11/08 12:50:26;;;;;;;2.67;1.10;;;15.50;68.20;;;;;;5053251;28;20032;-77
2022/11/08 12:53:11;;;;;;;2.28;1.30;;;15.50;68.90;;;;;;5035912;28;20089;-78
2022/11/08 12:55:40;;;;;;;3.33;1.38;;;15.50;68.70;;;;;;5035724;28;20042;-77
2022/11/08 12:58:34;;;;;;;3.78;1.25;;;15.60;68.80;;;;;;5053202;28;20408;-77
2022/11/08 13:01:10;;;;;;;3.03;1.55;;;15.60;68.60;;;;;;5016895;28;20037;-78
2022/11/08 13:03:45;;;;;;;2.80;1.25;;;15.60;69.20;;;;;;5053146;28;20022;-78
2022/11/08 13:06:17;;;;;;;4.20;1.40;;;15.60;68.70;;;;;;5035691;28;20036;-77
2022/11/08 13:08:55;;;;;;;3.05;1.20;;;15.60;68.80;;;;;;5053097;28;20025;-77
2022/11/08 13:11:31;;;;;;;2.17;1.27;;;15.60;68.30;;;;;;5053127;28;20021;-78
2022/11/08 13:13:59;;;;;;;1.88;0.90;;;15.60;68.10;;;;;;5053047;28;20040;-77
2022/11/08 13:16:27;;;;;;;2.35;1.10;;;15.70;67.90;;;;;;5053061;28;20032;-78
2022/11/08 13:19:00;;;;;;;2.28;1.13;;;15.70;67.80;;;;;;5052821;28;20049;-78
2022/11/08 13:21:36;;;;;;;2.78;1.50;;;15.70;68.50;;;;;;5053046;28;20105;-77
2022/11/08 13:24:05;;;;;;;3.00;1.30;;;15.80;67.80;;;;;;5053171;28;20025;-77